Latest Weather Observations for Coonamble

IDN60801

Issued at 5:32 pm EST Sunday 5 July 2015 (issued every 30 minutes, with the page automatically refreshed every 10 minutes)

About weather observations | Map of weather stations | Latest weather observations for NSW | Other Formats
Station Details ID: 051161 Name: COONAMBLE AIRPORT AWS Lat: -30.98 Lon: 148.38 Height: 181.3 m
Data from the previous 72 hours. | See also: Recent months at Coonamble
Date/Time
EST
Temp
°C
App
Temp
°C
Dew
Point
Rel
Hum
%
Delta-T
°C
Wind Press
QNH
hPa
Press
MSL
hPa
Rain
since 9 am
mm
Dir
 
Spd
km/h
Gust
km/h
Spd
kts
Gust
kts
05/05:30pm 9.9 7.4 4.7 70 2.3 SW 7 9 4 5 1020.2 1020.4 0.0
05/05:00pm 12.2 9.3 4.9 61 3.4 WSW 9 11 5 6 1020.5 1020.7 0.0
05/04:30pm 13.6 10.4 5.0 56 4.0 W 11 15 6 8 1020.5 1020.7 0.0
05/04:00pm 14.5 11.2 4.5 51 4.7 WSW 11 15 6 8 1020.4 1020.6 0.0
05/03:30pm 14.8 11.4 4.2 49 4.9 W 11 17 6 9 1020.3 1020.5 0.0
05/03:00pm 15.2 11.8 4.0 47 5.2 W 11 17 6 9 1020.5 1020.7 0.0
05/02:30pm 15.1 11.2 3.3 45 5.4 WNW 13 22 7 12 1020.5 1020.7 0.0
05/02:00pm 15.2 12.6 4.3 48 5.1 W 7 13 4 7 1020.7 1020.9 0.0
05/01:30pm 15.0 11.3 4.7 50 4.9 WNW 13 20 7 11 1021.1 1021.3 0.0
05/01:00pm 14.7 11.6 5.5 54 4.4 NW 11 17 6 9 1021.2 1021.4 0.0
05/12:30pm 14.5 11.7 5.3 54 4.4 NNW 9 13 5 7 1021.4 1021.6 0.0
05/12:00pm 14.0 11.4 4.3 52 4.5 N 7 13 4 7 1021.9 1022.1 0.0
05/11:30am 13.5 11.1 4.4 54 4.2 NW 6 11 3 6 1022.3 1022.5 0.0
05/11:00am 12.6 10.7 4.8 59 3.6 W 4 9 2 5 1022.8 1023.0 0.0
05/10:30am 11.9 9.6 4.9 62 3.2 NW 6 9 3 5 1023.3 1023.5 0.0
05/10:00am 10.3 8.1 5.3 71 2.3 SSW 6 9 3 5 1023.4 1023.6 0.0
05/09:30am 8.8 6.2 6.2 84 1.2 SW 9 11 5 6 1023.8 1024.0 0.0
05/09:00am 6.3 4.6 5.9 97 0.2 S 4 6 2 3 1023.3 1023.5 0.0
05/08:30am 4.9 2.4 4.5 97 0.2 SSE 7 9 4 5 1022.8 1023.0 0.0
05/08:00am 2.5 -0.3 2.2 98 0.1 SE 6 9 3 5 1022.6 1022.8 0.0
05/07:30am 1.0 -0.9 0.7 98 0.1 CALM 0 0 0 0 1022.3 1022.5 0.0
05/07:00am 1.2 -0.6 0.9 98 0.1 CALM 0 2 0 1 1022.2 1022.4 0.0
05/06:30am 1.5 -1.4 1.2 98 0.1 ESE 6 9 3 5 1022.0 1022.2 0.0
05/06:00am 2.3 -0.7 1.9 97 0.2 E 7 7 4 4 1021.9 1022.1 0.0
05/05:30am 2.0 -1.4 1.6 97 0.2 SSE 9 13 5 7 1021.8 1022.0 0.0
05/05:00am 2.1 -0.9 1.8 98 0.1 S 7 9 4 5 1021.8 1022.0 0.0
05/04:30am 2.7 0.0 2.4 98 0.1 SSW 6 9 3 5 1021.7 1021.9 0.0
05/04:00am 3.1 0.2 2.8 98 0.1 S 7 9 4 5 1021.7 1021.9 0.0
05/03:30am 2.5 -0.5 2.2 98 0.1 S 7 9 4 5 1021.6 1021.8 0.0
05/03:00am 2.0 -1.1 1.6 97 0.2 SSE 7 9 4 5 1021.7 1021.9 0.0
05/02:30am 2.3 -0.7 1.9 97 0.2 ESE 7 9 4 5 1021.7 1021.9 0.0
05/02:00am 3.8 1.0 3.4 97 0.2 SE 7 9 4 5 1021.9 1022.1 0.0
05/01:30am 4.2 1.7 3.8 97 0.2 SSE 6 7 3 4 1022.2 1022.4 0.0
05/01:00am 3.8 1.2 3.4 97 0.2 S 6 7 3 4 1022.4 1022.6 0.0
05/12:30am 3.9 1.4 3.5 97 0.2 S 6 7 3 4 1022.6 1022.8 0.0
05/12:00am 4.4 1.8 4.0 97 0.2 SW 7 7 4 4 1022.8 1023.0 0.0
 
Date/Time
EST
Temp
°C
App
Temp
°C
Dew
Point
Rel
Hum
%
Delta-T
°C
Wind Press
QNH
hPa
Press
MSL
hPa
Rain
since 9 am
mm
Dir
 
Spd
km/h
Gust
km/h
Spd
kts
Gust
kts
04/11:30pm 5.6 3.8 3.6 87 0.8 SSW 2 6 1 3 1022.9 1023.1 0.0
04/11:00pm 5.5 2.8 3.5 87 0.8 SSW 7 9 4 5 1023.0 1023.3 0.0
04/10:30pm 7.0 3.4 3.1 76 1.7 S 11 13 6 7 1023.2 1023.4 0.0
04/10:00pm 7.6 3.7 3.5 75 1.8 S 13 17 7 9 1023.0 1023.3 0.0
04/09:30pm 7.7 3.9 3.7 76 1.7 S 13 15 7 8 1023.0 1023.3 0.0
04/09:00pm 7.7 4.6 3.6 75 1.8 S 9 11 5 6 1023.0 1023.3 0.0
04/08:30pm 8.1 5.0 3.6 73 2.0 SSE 9 11 5 6 1022.8 1023.0 0.0
04/08:00pm 7.9 4.8 3.8 75 1.8 SSE 9 11 5 6 1022.9 1023.1 0.0
04/07:30pm 7.9 4.5 3.9 76 1.7 S 11 13 6 7 1022.9 1023.1 0.0
04/07:00pm 8.4 5.0 4.0 74 1.9 SSW 11 11 6 6 1022.9 1023.1 0.0
04/06:30pm 8.5 5.3 5.1 79 1.5 S 11 13 6 7 1022.8 1023.0 0.0
04/06:00pm 8.9 6.2 5.8 81 1.4 S 9 13 5 7 1022.7 1022.9 0.0
04/05:30pm 9.6 6.9 5.8 77 1.8 S 9 13 5 7 1022.5 1022.7 0.0
04/05:00pm 10.7 7.7 6.1 73 2.2 SSW 11 15 6 8 1022.5 1022.7 0.0
04/04:30pm 11.8 8.8 5.9 67 2.8 SSW 11 15 6 8 1022.5 1022.7 0.0
04/04:00pm 12.7 9.5 4.9 59 3.6 SSW 11 13 6 7 1022.5 1022.7 0.0
04/03:30pm 13.2 9.7 5.6 60 3.6 SSW 13 17 7 9 1022.6 1022.8 0.0
04/03:00pm 13.6 10.4 5.3 57 3.9 SW 11 15 6 8 1022.6 1022.8 0.0
04/02:30pm 13.6 10.3 4.5 54 4.2 SW 11 15 6 8 1022.6 1022.8 0.0
04/02:00pm 13.7 11.2 4.6 54 4.2 WSW 7 11 4 6 1022.7 1022.9 0.0
04/01:30pm 13.7 11.5 5.3 57 4.0 WSW 6 13 3 7 1022.9 1023.1 0.0
04/01:00pm 13.8 11.0 5.2 56 4.0 WSW 9 13 5 7 1023.3 1023.5 0.0
04/12:30pm 13.9 11.2 5.8 58 3.9 W 9 13 5 7 1023.8 1024.0 0.0
04/12:00pm 13.1 10.6 4.8 57 3.8 WSW 7 11 4 6 1024.4 1024.6 0.0
04/11:30am 12.9 10.4 4.6 57 3.8 W 7 11 4 6 1025.0 1025.2 0.0
04/11:00am 12.7 10.5 5.4 61 3.4 NW 6 13 3 7 1025.4 1025.6 0.0
04/10:30am 12.1 10.2 5.0 62 3.3 NW 4 6 2 3 1025.7 1025.9 0.0
04/10:00am 10.6 8.9 6.0 73 2.1 NNE 4 6 2 3 1025.7 1025.9 0.0
04/09:30am 8.3 7.3 5.8 84 1.1 CALM 0 6 0 3 1025.7 1025.9 0.0
04/09:00am 6.2 4.1 5.8 97 0.2 ENE 6 7 3 4 1025.4 1025.6 0.0
04/08:30am 4.4 3.1 4.0 97 0.2 CALM 0 0 0 0 1025.0 1025.2 0.0
04/08:00am 1.2 -1.0 0.9 98 0.1 SE 2 6 1 3 1024.7 1024.9 0.0
04/07:30am -0.3 -3.5 -0.6 98 0.1 ESE 6 7 3 4 1024.5 1024.7 0.0
04/07:00am -0.6 -3.9 -0.9 98 0.1 ESE 6 7 3 4 1024.2 1024.4 0.0
04/06:30am 0.2 -3.5 -0.1 98 0.1 ENE 9 11 5 6 1024.0 1024.2 0.0
04/06:00am -0.1 -3.5 -0.4 98 0.1 E 7 11 4 6 1024.0 1024.2 0.0
04/05:30am -1.0 -4.3 -1.4 97 0.1 ENE 6 7 3 4 1024.0 1024.2 0.0
04/05:00am 0.2 -2.2 -0.2 97 0.1 S 2 6 1 3 1023.9 1024.1 0.0
04/04:30am 0.4 -3.3 0.0 97 0.1 S 9 11 5 6 1024.0 1024.2 0.0
04/04:00am 0.5 -2.6 0.1 97 0.1 SSE 6 7 3 4 1024.1 1024.3 0.0
04/03:30am 0.5 -1.8 0.1 97 0.1 SE 2 6 1 3 1024.0 1024.2 0.0
04/03:00am 1.3 -0.5 0.9 97 0.2 CALM 0 0 0 0 1024.0 1024.2 0.0
04/02:30am 2.3 0.2 1.9 97 0.2 SSW 2 6 1 3 1024.3 1024.5 0.0
04/02:00am 2.1 -1.0 1.2 94 0.3 SSW 7 11 4 6 1024.6 1024.8 0.0
04/01:30am 3.9 0.2 2.1 88 0.7 SSE 11 13 6 7 1024.6 1024.8 0.0
04/01:00am 4.3 0.3 3.0 91 0.5 SSE 13 17 7 9 1024.5 1024.7 0.0
04/12:30am 4.0 0.1 3.3 95 0.3 SSE 13 17 7 9 1024.5 1024.7 0.0
04/12:00am 3.6 0.0 3.2 97 0.2 SSE 11 15 6 8 1024.9 1025.1 0.0
 
Date/Time
EST
Temp
°C
App
Temp
°C
Dew
Point
Rel
Hum
%
Delta-T
°C
Wind Press
QNH
hPa
Press
MSL
hPa
Rain
since 9 am
mm
Dir
 
Spd
km/h
Gust
km/h
Spd
kts
Gust
kts
03/11:30pm 3.0 -0.7 2.6 97 0.2 SSE 11 13 6 7 1025.4 1025.6 0.0
03/11:00pm 2.1 -1.3 1.7 97 0.2 SSW 9 11 5 6 1025.9 1026.1 0.0
03/10:30pm 3.1 -0.5 2.7 97 0.2 S 11 11 6 6 1025.9 1026.1 0.0
03/10:00pm 3.3 0.5 2.9 97 0.2 S 7 7 4 4 1025.9 1026.1 0.0
03/09:30pm 3.2 1.7 2.8 97 0.2 CALM 0 0 0 0 1026.0 1026.2 0.0
03/09:00pm 3.9 0.6 2.6 91 0.5 SSW 9 9 5 5 1025.8 1026.0 0.0
03/08:30pm 4.3 1.4 2.8 90 0.6 SSW 7 9 4 5 1025.8 1026.0 0.0
03/08:00pm 4.4 1.0 1.8 83 1.0 SSW 9 11 5 6 1025.8 1026.0 0.0
03/07:30pm 5.5 1.8 2.2 79 1.3 SSW 11 15 6 8 1025.6 1025.8 0.0
03/07:00pm 6.9 2.6 3.2 77 1.6 S 15 17 8 9 1025.3 1025.5 0.0
03/06:30pm 6.8 2.5 3.4 79 1.5 S 15 17 8 9 1025.2 1025.4 0.0
03/06:00pm 8.0 3.8 3.8 75 1.8 SSE 15 17 8 9 1025.0 1025.2 0.0
03/05:30pm 8.8 5.9 4.6 75 1.9 S 9 11 5 6 1025.3 1025.5 0.0
03/05:00pm 9.9 6.6 4.7 70 2.3 SSW 11 13 6 7 1025.0 1025.2 0.0
03/04:30pm 11.8 8.5 4.3 60 3.4 S 11 13 6 7 1024.8 1025.0 0.0
03/04:00pm 12.6 9.4 3.3 53 4.1 S 9 13 5 7 1024.9 1025.1 0.0
03/03:30pm 13.2 11.0 3.6 52 4.4 S 4 11 2 6 1024.8 1025.0 0.0
03/03:00pm 13.0 9.7 2.3 48 4.7 ESE 9 13 5 7 1024.8 1025.0 0.0
03/02:30pm 13.5 10.8 2.7 48 4.8 W 6 9 3 5 1025.0 1025.2 0.0
03/02:00pm 13.7 10.9 2.3 46 5.0 S 6 11 3 6 1025.2 1025.4 0.0
03/01:30pm 13.1 10.3 3.2 51 4.5 SSE 7 11 4 6 1025.5 1025.7 0.0
03/01:00pm 13.1 10.2 2.6 49 4.6 E 7 17 4 9 1026.0 1026.2 0.0
03/12:30pm 12.3 8.9 1.9 49 4.5 SE 9 13 5 7 1026.5 1026.7 0.0
03/12:00pm 12.0 9.1 2.5 52 4.1 E 7 13 4 7 1026.8 1027.0 0.0
03/11:30am 11.2 7.8 1.7 52 4.1 SSE 9 13 5 7 1027.3 1027.5 0.0
03/11:00am 10.5 6.8 4.2 65 2.8 SSE 13 17 7 9 1027.5 1027.7 0.0
03/10:30am 9.6 5.2 5.0 73 2.1 SSE 17 22 9 12 1027.6 1027.9 0.0
03/10:00am 8.8 4.2 5.7 81 1.4 SSE 19 24 10 13 1027.8 1028.1 0.0
03/09:30am 7.7 3.2 6.3 91 0.6 SSE 19 26 10 14 1027.5 1027.7 0.0
03/09:00am 6.4 1.8 5.8 96 0.3 SSE 19 26 10 14 1027.4 1027.6 0.0
03/08:30am 4.8 0.3 4.4 97 0.2 SSE 17 22 9 12 1027.0 1027.2 0.0
03/08:00am 3.3 -1.4 3.0 98 0.1 SSE 17 22 9 12 1026.9 1027.1 0.0
03/07:30am 2.1 -2.1 1.8 98 0.1 SSE 13 17 7 9 1026.6 1026.8 0.0
03/07:00am 2.1 -2.5 1.8 98 0.1 SSE 15 19 8 10 1026.3 1026.5 0.0
03/06:30am 1.5 -2.8 1.2 98 0.1 S 13 20 7 11 1026.0 1026.2 0.0
03/06:00am 1.4 -2.9 1.1 98 0.1 S 13 17 7 9 1025.8 1026.0 0.0
03/05:30am 2.3 -1.8 2.0 98 0.1 SSE 13 19 7 10 1025.3 1025.5 0.0
03/05:00am 2.6 -1.9 2.3 98 0.1 S 15 19 8 10 1025.1 1025.3 0.0
03/04:30am 2.5 -1.6 2.2 98 0.1 S 13 19 7 10 1025.0 1025.2 0.0
03/04:00am 3.0 -1.4 2.7 98 0.1 SSW 15 19 8 10 1025.0 1025.2 0.0
03/03:30am 2.6 -1.9 2.3 98 0.1 SSW 15 17 8 9 1025.1 1025.3 0.0
03/03:00am 2.9 -1.5 2.6 98 0.1 SSW 15 17 8 9 1025.1 1025.3 0.0
03/02:30am 3.2 -0.8 2.9 98 0.1 SSW 13 15 7 8 1025.4 1025.6 0.0
03/02:00am 3.5 0.3 3.2 98 0.1 SSW 9 13 5 7 1025.3 1025.5 0.0
03/01:30am 4.8 1.5 4.5 98 0.1 SW 11 15 6 8 1025.6 1025.8 0.0
03/01:00am 5.2 1.2 4.9 98 0.1 SSW 15 19 8 10 1025.4 1025.6 0.0
03/12:30am 4.0 0.5 3.7 98 0.1 SSW 11 13 6 7 1025.8 1026.0 0.0
03/12:00am 4.3 1.3 3.9 97 0.2 SSW 9 9 5 5 1025.7 1025.9 0.0
 
Date/Time
EST
Temp
°C
App
Temp
°C
Dew
Point
Rel
Hum
%
Delta-T
°C
Wind Press
QNH
hPa
Press
MSL
hPa
Rain
since 9 am
mm
Dir
 
Spd
km/h
Gust
km/h
Spd
kts
Gust
kts
02/11:30pm 5.1 1.8 4.7 97 0.2 SSW 11 13 6 7 1025.8 1026.0 0.0
02/11:00pm 5.5 1.9 5.1 97 0.2 SSW 13 15 7 8 1026.0 1026.2 0.0
02/10:30pm 5.8 2.7 5.4 97 0.2 SW 11 13 6 7 1026.2 1026.4 0.0
02/10:00pm 6.4 3.0 6.0 97 0.2 SSW 13 15 7 8 1025.9 1026.1 0.0
02/09:30pm 7.2 4.8 6.8 97 0.2 SW 9 13 5 7 1026.1 1026.3 0.0
02/09:00pm 7.0 4.5 6.6 97 0.2 SW 9 11 5 6 1025.7 1025.9 0.0
02/08:30pm 6.6 4.6 6.3 98 0.1 WSW 6 7 3 4 1025.4 1025.6 0.0
02/08:00pm 5.5 3.3 5.1 97 0.2 WNW 6 7 3 4 1025.1 1025.3 0.0
02/07:30pm 5.5 3.3 5.1 97 0.2 WNW 6 7 3 4 1025.2 1025.4 0.0
02/07:00pm 6.4 4.3 6.0 97 0.2 WNW 6 7 3 4 1024.9 1025.1 0.0
02/06:30pm 6.9 4.8 5.8 93 0.5 WNW 6 7 3 4 1024.8 1025.0 0.0
02/06:00pm 8.0 5.8 6.3 89 0.8 WNW 7 9 4 5 1024.5 1024.7 0.0

Other Formats:

Comma delimited format used in spreadsheet applications
http://www.bom.gov.au/fwo/IDN60801/IDN60801.95718.axf

JavaScript Object Notation format (JSON) in row-major order
http://www.bom.gov.au/fwo/IDN60801/IDN60801.95718.json